createdAt,value
2022-09-14T00:02:50.830Z,0.20
2022-09-14T00:05:53.903Z,0.30
2022-09-14T00:08:58.270Z,0.20
2022-09-14T00:12:01.366Z,0.10
2022-09-14T00:15:04.699Z,0.20
2022-09-14T00:18:10.149Z,0.50
2022-09-14T00:21:13.238Z,0.68
2022-09-14T00:24:16.069Z,0.30
2022-09-14T00:27:18.666Z,0.30
2022-09-14T00:30:22.954Z,0.20
2022-09-14T00:33:25.587Z,0.43
2022-09-14T00:36:30.046Z,0.43
2022-09-14T00:39:32.753Z,0.43
2022-09-14T00:42:36.779Z,0.20
2022-09-14T00:45:39.404Z,0.10
2022-09-14T00:48:42.403Z,0.68
2022-09-14T00:51:58.951Z,0.20
2022-09-14T00:55:06.359Z,0.20
2022-09-14T00:58:09.105Z,0.20
2022-09-14T01:01:12.262Z,0.28
2022-09-14T01:04:14.948Z,0.20
2022-09-14T01:07:43.181Z,0.20
2022-09-14T01:10:48.528Z,0.13
2022-09-14T01:14:09.240Z,0.10
2022-09-14T01:17:21.198Z,0.20
2022-09-14T01:20:42.111Z,0.15
2022-09-14T01:24:12.325Z,0.20
2022-09-14T01:27:43.984Z,0.13
2022-09-14T01:30:49.546Z,0.30
2022-09-14T01:34:01.749Z,0.20
2022-09-14T01:37:17.290Z,0.20
2022-09-14T01:40:27.047Z,0.30
2022-09-14T01:43:44.121Z,0.20
2022-09-14T01:46:51.842Z,0.20
2022-09-14T01:50:01.440Z,0.20
2022-09-14T01:53:19.966Z,0.20
2022-09-14T01:56:32.221Z,0.20
2022-09-14T01:59:43.186Z,0.20
2022-09-14T02:03:00.704Z,0.20
2022-09-14T02:06:18.561Z,0.20
2022-09-14T02:09:26.636Z,0.20
2022-09-14T02:12:29.975Z,0.20
2022-09-14T02:15:34.957Z,0.10
2022-09-14T02:18:39.126Z,0.20
2022-09-14T02:21:41.734Z,0.00
2022-09-14T02:24:44.910Z,0.20
2022-09-14T02:27:49.007Z,0.17
2022-09-14T02:31:10.629Z,0.23
2022-09-14T02:34:39.468Z,0.20
2022-09-14T02:38:03.463Z,0.20
2022-09-14T02:41:37.440Z,0.10
2022-09-14T02:45:27.043Z,0.20
2022-09-14T02:48:48.460Z,0.30
2022-09-14T02:52:18.779Z,0.10
2022-09-14T02:55:25.103Z,0.20
2022-09-14T02:58:48.473Z,0.10
2022-09-14T03:01:51.118Z,0.13
2022-09-14T03:04:54.316Z,0.10
2022-09-14T03:07:57.336Z,0.03
2022-09-14T03:11:00.272Z,0.10
2022-09-14T03:14:02.872Z,0.30
2022-09-14T03:17:06.540Z,0.17
2022-09-14T03:20:09.623Z,0.20
2022-09-14T03:23:13.670Z,0.10
2022-09-14T03:26:18.959Z,0.10
2022-09-14T03:29:22.038Z,0.10
2022-09-14T03:32:24.653Z,0.20
2022-09-14T03:35:31.500Z,0.10
2022-09-14T03:38:34.199Z,0.08
2022-09-14T03:41:37.064Z,0.10
2022-09-14T03:44:39.693Z,0.32
2022-09-14T03:47:43.363Z,0.10
2022-09-14T03:50:46.337Z,0.10
2022-09-14T03:53:49.305Z,0.10
2022-09-14T03:56:53.205Z,0.20
2022-09-14T03:59:56.074Z,0.10
2022-09-14T04:03:00.325Z,0.10
2022-09-14T04:06:07.436Z,0.10
2022-09-14T04:09:10.062Z,0.10
2022-09-14T04:12:12.905Z,0.00
2022-09-14T04:15:15.460Z,0.10
2022-09-14T04:18:18.282Z,0.35
2022-09-14T04:21:23.655Z,0.10
2022-09-14T04:24:30.241Z,0.10
2022-09-14T04:27:33.551Z,0.00
2022-09-14T04:30:36.370Z,0.10
2022-09-14T04:33:40.611Z,0.10
2022-09-14T04:36:43.649Z,0.00
2022-09-14T04:39:46.682Z,0.20
2022-09-14T04:42:49.644Z,0.00
2022-09-14T04:45:53.135Z,0.10
2022-09-14T04:48:56.305Z,0.20
2022-09-14T04:51:58.906Z,0.10
2022-09-14T04:55:01.853Z,0.00
2022-09-14T04:58:05.110Z,0.10
2022-09-14T05:01:16.881Z,0.10
2022-09-14T05:04:19.464Z,0.00
2022-09-14T05:07:22.315Z,0.20
2022-09-14T05:10:24.976Z,0.20
2022-09-14T05:13:28.016Z,0.10
2022-09-14T05:16:33.566Z,0.30
2022-09-14T05:19:36.642Z,0.20
2022-09-14T05:22:39.462Z,0.20
2022-09-14T05:25:42.342Z,0.20
2022-09-14T05:28:50.600Z,0.20
2022-09-14T05:31:53.489Z,0.50
2022-09-14T05:34:56.175Z,0.40
2022-09-14T05:37:59.037Z,0.40
2022-09-14T05:41:02.013Z,0.20
2022-09-14T05:44:05.694Z,0.32
2022-09-14T05:47:08.325Z,0.30
2022-09-14T05:50:11.187Z,1.75
2022-09-14T05:53:13.949Z,0.20
2022-09-14T05:56:17.905Z,0.30
2022-09-14T05:59:20.707Z,0.20
2022-09-14T06:02:23.787Z,0.30
2022-09-14T06:05:28.253Z,0.32
2022-09-14T06:08:31.139Z,0.30
2022-09-14T06:11:36.479Z,0.20
2022-09-14T06:14:40.732Z,0.20
2022-09-14T06:17:43.797Z,0.30
2022-09-14T06:20:51.624Z,0.50
2022-09-14T06:23:55.947Z,0.30
2022-09-14T06:26:58.525Z,0.30
2022-09-14T06:30:01.637Z,0.30
2022-09-14T06:33:05.247Z,0.30
2022-09-14T06:36:14.575Z,0.35
2022-09-14T06:39:17.601Z,0.30
2022-09-14T06:42:20.496Z,0.30
2022-09-14T06:45:25.895Z,0.30
2022-09-14T06:48:30.906Z,0.30
2022-09-14T06:51:46.518Z,0.20
2022-09-14T06:54:49.556Z,0.43
2022-09-14T06:57:52.160Z,0.30
2022-09-14T07:00:55.035Z,0.40
2022-09-14T07:03:58.339Z,0.30
2022-09-14T07:07:01.326Z,0.30
2022-09-14T07:10:04.234Z,0.40
2022-09-14T07:13:07.775Z,0.47
2022-09-14T07:16:11.399Z,0.43
2022-09-14T07:19:15.071Z,0.30
2022-09-14T07:22:17.710Z,0.62
2022-09-14T07:25:20.604Z,0.43
2022-09-14T07:28:23.195Z,0.30
2022-09-14T07:31:39.894Z,0.43
2022-09-14T07:34:42.582Z,0.30
2022-09-14T07:37:45.715Z,0.40
2022-09-14T07:40:48.505Z,0.37
2022-09-14T07:43:53.414Z,0.30
2022-09-14T07:46:56.024Z,0.40
2022-09-14T07:49:58.942Z,0.30
2022-09-14T07:53:01.722Z,1.15
2022-09-14T07:56:06.059Z,0.30
2022-09-14T07:59:34.497Z,0.47
2022-09-14T08:02:34.792Z,0.40
2022-09-14T08:05:37.778Z,1.02
2022-09-14T08:08:42.906Z,0.40
2022-09-14T08:11:45.417Z,0.30
2022-09-14T08:14:48.027Z,0.88
2022-09-14T08:17:50.554Z,0.60
2022-09-14T08:20:53.419Z,0.70
2022-09-14T08:23:57.941Z,0.70
2022-09-14T08:27:00.522Z,0.70
2022-09-14T08:30:03.887Z,0.80
2022-09-14T08:33:07.396Z,0.70
2022-09-14T08:36:12.418Z,0.65
2022-09-14T08:39:16.286Z,0.60
2022-09-14T08:42:23.012Z,0.70
2022-09-14T08:45:25.935Z,0.70
2022-09-14T08:48:34.988Z,0.70
2022-09-14T08:51:37.485Z,0.45
2022-09-14T08:54:40.150Z,0.50
2022-09-14T08:57:51.115Z,0.60
2022-09-14T09:01:19.696Z,0.50
2022-09-14T09:04:44.361Z,0.40
2022-09-14T09:07:57.515Z,0.52
2022-09-14T09:11:01.822Z,0.80
2022-09-14T09:14:22.450Z,0.50
2022-09-14T09:17:42.107Z,0.32
2022-09-14T09:20:50.727Z,0.50
2022-09-14T09:24:01.709Z,0.50
2022-09-14T09:27:11.071Z,0.50
2022-09-14T09:30:15.689Z,0.50
2022-09-14T09:33:24.185Z,0.50
2022-09-14T09:36:33.571Z,0.65
2022-09-14T09:39:36.522Z,0.50
2022-09-14T09:43:04.899Z,0.50
2022-09-14T09:46:08.378Z,0.90
2022-09-14T09:49:22.245Z,0.73
2022-09-14T09:52:25.556Z,0.77
2022-09-14T09:55:38.422Z,0.60
2022-09-14T09:58:41.328Z,0.70
2022-09-14T10:01:43.979Z,0.60
2022-09-14T10:04:58.494Z,0.70
2022-09-14T10:08:03.011Z,0.60
2022-09-14T10:11:06.169Z,0.60
2022-09-14T10:14:34.120Z,0.60
2022-09-14T10:17:37.860Z,1.00
2022-09-14T10:20:44.775Z,0.80
2022-09-14T10:24:03.753Z,0.82
2022-09-14T10:27:37.129Z,0.60
2022-09-14T10:30:51.140Z,0.60
2022-09-14T10:33:56.708Z,0.60
2022-09-14T10:37:32.167Z,0.70
2022-09-14T10:40:44.030Z,0.90
2022-09-14T10:44:24.215Z,0.60
2022-09-14T10:47:51.320Z,1.27
2022-09-14T10:51:03.624Z,0.70
2022-09-14T10:54:37.296Z,0.80
2022-09-14T10:57:45.345Z,0.82
2022-09-14T11:01:13.321Z,0.70
2022-09-14T11:04:26.683Z,1.00
2022-09-14T11:08:06.601Z,1.00
2022-09-14T11:11:28.079Z,0.80
2022-09-14T11:14:42.985Z,0.70
2022-09-14T11:18:10.634Z,0.80
2022-09-14T11:21:28.472Z,0.80
2022-09-14T11:24:56.369Z,2.37
2022-09-14T11:28:03.836Z,0.60
2022-09-14T11:31:13.644Z,0.98
2022-09-14T11:34:28.089Z,0.88
2022-09-14T11:37:45.989Z,0.60
2022-09-14T11:40:57.888Z,0.80
2022-09-14T11:44:12.263Z,2.65
2022-09-14T11:47:20.206Z,0.85
2022-09-14T11:50:27.806Z,0.70
2022-09-14T11:53:32.889Z,0.90
2022-09-14T11:56:36.128Z,0.90
2022-09-14T11:59:41.564Z,0.77
2022-09-14T12:02:57.664Z,0.80
2022-09-14T12:06:47.669Z,0.75
2022-09-14T12:09:51.572Z,0.80
2022-09-14T12:13:18.894Z,0.70
2022-09-14T12:16:21.743Z,0.80
2022-09-14T12:19:27.055Z,0.90
2022-09-14T12:22:36.286Z,0.80
2022-09-14T12:25:52.611Z,0.73
2022-09-14T12:29:01.288Z,0.80
2022-09-14T12:32:07.148Z,1.00
2022-09-14T12:35:34.704Z,0.80
2022-09-14T12:38:37.993Z,0.68
2022-09-14T12:41:40.662Z,0.70
2022-09-14T12:44:43.759Z,0.70
2022-09-14T12:47:52.701Z,0.98
2022-09-14T12:50:55.864Z,0.82
2022-09-14T12:53:58.603Z,1.05
2022-09-14T12:57:15.800Z,0.70
2022-09-14T13:00:20.272Z,0.90
2022-09-14T13:03:35.466Z,0.60
2022-09-14T13:06:45.173Z,0.70
2022-09-14T13:09:54.956Z,0.70
2022-09-14T13:12:59.120Z,0.90
2022-09-14T13:16:06.085Z,0.80
2022-09-14T13:19:28.812Z,1.00
2022-09-14T13:22:33.693Z,0.90
2022-09-14T13:25:38.389Z,0.80
2022-09-14T13:28:45.229Z,1.10
2022-09-14T13:31:48.385Z,1.57
2022-09-14T13:34:52.682Z,0.88
2022-09-14T13:37:58.087Z,0.85
2022-09-14T13:41:16.809Z,0.70
2022-09-14T13:44:33.034Z,0.93
2022-09-14T13:47:39.329Z,0.87
2022-09-14T13:50:45.391Z,0.80
2022-09-14T13:53:50.958Z,0.80
2022-09-14T13:57:16.800Z,0.80
2022-09-14T14:00:23.229Z,0.80
2022-09-14T14:03:31.433Z,0.93
2022-09-14T14:06:37.887Z,1.02
2022-09-14T14:09:53.415Z,0.70
2022-09-14T14:12:56.715Z,0.90
2022-09-14T14:16:16.618Z,0.80
2022-09-14T14:19:31.083Z,0.80
2022-09-14T14:22:37.515Z,1.00
2022-09-14T14:25:47.642Z,0.90
2022-09-14T14:28:50.738Z,0.95
2022-09-14T14:31:56.085Z,0.70
2022-09-14T14:35:07.585Z,0.80
2022-09-14T14:38:10.711Z,0.70
2022-09-14T14:41:19.673Z,0.98
2022-09-14T14:44:28.377Z,0.80
2022-09-14T14:47:31.734Z,0.85
2022-09-14T14:50:36.086Z,0.90
2022-09-14T14:53:39.108Z,1.00
2022-09-14T14:56:43.652Z,1.25
2022-09-14T14:59:47.122Z,0.77
2022-09-14T15:02:51.125Z,1.30
2022-09-14T15:05:53.934Z,1.27
2022-09-14T15:08:56.852Z,1.00
2022-09-14T15:12:00.169Z,0.88
2022-09-14T15:15:02.884Z,1.00
2022-09-14T15:18:06.722Z,0.70
2022-09-14T15:21:10.187Z,0.90
2022-09-14T15:24:13.182Z,0.82
2022-09-14T15:27:15.967Z,0.90
2022-09-14T15:30:19.162Z,1.00
2022-09-14T15:33:21.826Z,1.30
2022-09-14T15:36:47.749Z,0.97
2022-09-14T15:39:53.519Z,0.80
2022-09-14T15:42:56.558Z,0.90
2022-09-14T15:46:03.746Z,0.95
2022-09-14T15:49:11.780Z,0.70
2022-09-14T15:52:14.530Z,0.70
2022-09-14T15:55:17.430Z,1.02
2022-09-14T15:58:20.022Z,1.10
2022-09-14T16:01:23.003Z,0.73
2022-09-14T16:04:26.572Z,0.70
2022-09-14T16:07:29.894Z,0.73
2022-09-14T16:10:33.178Z,0.70
2022-09-14T16:13:36.637Z,0.85
2022-09-14T16:16:39.687Z,1.17
2022-09-14T16:19:42.376Z,0.70
2022-09-14T16:22:47.425Z,1.63
2022-09-14T16:25:50.097Z,1.80
2022-09-14T16:28:53.657Z,0.80
2022-09-14T16:31:56.282Z,0.85
2022-09-14T16:34:59.408Z,1.60
2022-09-14T16:38:02.046Z,1.50
2022-09-14T16:41:06.105Z,0.88
2022-09-14T16:44:13.073Z,0.80
2022-09-14T16:47:15.959Z,0.73
2022-09-14T16:50:18.546Z,0.80
2022-09-14T16:53:21.628Z,0.70
2022-09-14T16:56:26.602Z,0.60
2022-09-14T16:59:29.720Z,0.70
2022-09-14T17:02:32.395Z,0.90
2022-09-14T17:05:35.277Z,0.70
2022-09-14T17:08:43.063Z,0.70
2022-09-14T17:11:47.069Z,0.70
2022-09-14T17:14:49.849Z,0.70
2022-09-14T17:17:52.715Z,0.80
2022-09-14T17:21:01.419Z,0.80
2022-09-14T17:24:05.570Z,0.70
2022-09-14T17:27:08.535Z,0.68
2022-09-14T17:30:12.161Z,0.60
2022-09-14T17:33:14.742Z,0.50
2022-09-14T17:36:17.681Z,0.80
2022-09-14T17:39:20.336Z,1.10
2022-09-14T17:42:23.262Z,0.90
2022-09-14T17:45:25.875Z,1.08
2022-09-14T17:48:33.175Z,0.60
2022-09-14T17:51:37.246Z,0.70
2022-09-14T17:54:40.180Z,1.13
2022-09-14T17:57:43.358Z,0.60
2022-09-14T18:00:46.398Z,0.75
2022-09-14T18:03:52.850Z,0.60
2022-09-14T18:06:55.832Z,0.60
2022-09-14T18:09:58.763Z,0.90
2022-09-14T18:13:01.981Z,0.90
2022-09-14T18:16:05.050Z,0.70
2022-09-14T18:19:08.318Z,1.00
2022-09-14T18:22:11.314Z,0.55
2022-09-14T18:25:14.044Z,0.87
2022-09-14T18:28:17.251Z,0.52
2022-09-14T18:31:20.057Z,0.90
2022-09-14T18:34:25.378Z,0.60
2022-09-14T18:37:28.034Z,0.62
2022-09-14T18:40:32.614Z,0.53
2022-09-14T18:43:36.586Z,0.60
2022-09-14T18:46:39.793Z,0.77
2022-09-14T18:49:42.647Z,0.50
2022-09-14T18:52:45.584Z,0.50
2022-09-14T18:55:48.341Z,0.50
2022-09-14T18:58:51.473Z,0.50
2022-09-14T19:01:55.505Z,0.47
2022-09-14T19:04:58.960Z,0.60
2022-09-14T19:08:02.213Z,0.55
2022-09-14T19:11:17.879Z,0.50
2022-09-14T19:14:20.708Z,0.60
2022-09-14T19:17:23.987Z,0.30
2022-09-14T19:20:38.118Z,0.40
2022-09-14T19:23:55.109Z,0.50
2022-09-14T19:26:57.679Z,0.90
2022-09-14T19:30:01.217Z,0.40
2022-09-14T19:33:03.925Z,0.50
2022-09-14T19:36:09.737Z,0.55
2022-09-14T19:39:12.714Z,0.47
2022-09-14T19:42:36.292Z,1.23
2022-09-14T19:45:39.063Z,0.50
2022-09-14T19:48:42.958Z,0.47
2022-09-14T19:51:45.795Z,0.70
2022-09-14T19:54:48.772Z,0.88
2022-09-14T19:57:51.890Z,0.50
2022-09-14T20:00:58.706Z,0.40
2022-09-14T20:04:02.341Z,0.88
2022-09-14T20:07:06.501Z,0.75
2022-09-14T20:10:10.185Z,1.17
2022-09-14T20:13:12.870Z,0.30
2022-09-14T20:16:28.705Z,0.45
2022-09-14T20:19:32.708Z,0.60
2022-09-14T20:22:35.605Z,0.35
2022-09-14T20:25:38.417Z,0.60
2022-09-14T20:28:42.455Z,0.80
2022-09-14T20:31:46.246Z,0.50
2022-09-14T20:34:49.121Z,0.43
2022-09-14T20:37:51.701Z,0.50
2022-09-14T20:41:08.524Z,0.37
2022-09-14T20:44:12.060Z,0.40
2022-09-14T20:47:14.955Z,0.60
2022-09-14T20:50:17.658Z,0.50
2022-09-14T20:53:21.431Z,0.45
2022-09-14T20:56:27.174Z,0.30
2022-09-14T20:59:30.641Z,0.50
2022-09-14T21:02:33.509Z,0.45
2022-09-14T21:05:36.646Z,0.50
2022-09-14T21:08:41.196Z,0.68
2022-09-14T21:11:45.994Z,0.30
2022-09-14T21:14:48.795Z,0.30
2022-09-14T21:17:52.042Z,0.40
2022-09-14T21:20:54.752Z,0.37
2022-09-14T21:23:59.099Z,0.32
2022-09-14T21:27:02.366Z,0.40
2022-09-14T21:30:06.148Z,0.40
2022-09-14T21:33:11.266Z,0.30
2022-09-14T21:36:21.461Z,0.40
2022-09-14T21:39:26.960Z,0.30
2022-09-14T21:42:30.046Z,0.43
2022-09-14T21:45:32.817Z,0.30
2022-09-14T21:48:37.534Z,0.40
2022-09-14T21:51:40.169Z,0.20
2022-09-14T21:54:43.220Z,0.35
2022-09-14T21:57:48.389Z,0.57
2022-09-14T22:00:59.290Z,0.40
2022-09-14T22:04:03.324Z,0.40
2022-09-14T22:07:06.242Z,0.30
2022-09-14T22:10:10.690Z,0.50
2022-09-14T22:13:13.597Z,0.40
2022-09-14T22:16:18.219Z,0.40
2022-09-14T22:19:29.664Z,0.45
2022-09-14T22:22:32.632Z,0.35
2022-09-14T22:25:39.688Z,0.30
2022-09-14T22:28:42.906Z,0.50
2022-09-14T22:31:46.547Z,0.30
2022-09-14T22:34:50.828Z,0.47
2022-09-14T22:37:53.706Z,0.60
2022-09-14T22:41:10.476Z,0.30
2022-09-14T22:44:13.344Z,0.60
2022-09-14T22:47:16.371Z,0.70
2022-09-14T22:50:19.191Z,0.43
2022-09-14T22:53:23.465Z,0.50
2022-09-14T22:56:32.841Z,0.40
2022-09-14T22:59:36.040Z,0.70
2022-09-14T23:02:39.100Z,0.30
2022-09-14T23:05:59.957Z,0.35
2022-09-14T23:09:04.370Z,0.40
2022-09-14T23:12:07.406Z,0.47
2022-09-14T23:15:10.407Z,0.50
2022-09-14T23:18:14.176Z,0.40
2022-09-14T23:21:16.985Z,0.50
2022-09-14T23:24:20.192Z,0.45
2022-09-14T23:27:23.104Z,0.40
2022-09-14T23:30:26.217Z,0.60
2022-09-14T23:33:30.550Z,0.40
2022-09-14T23:36:34.450Z,0.50
2022-09-14T23:39:37.336Z,0.40
2022-09-14T23:42:40.519Z,0.30
2022-09-14T23:45:47.835Z,0.32
2022-09-14T23:48:51.789Z,0.30
2022-09-14T23:51:54.802Z,0.40
2022-09-14T23:54:57.990Z,0.40
2022-09-14T23:58:00.762Z,0.30
